sensor_id;sensor_type;location;lat;lon;timestamp;temperature;humidity
64468;DHT22;50853;46.836;16.820;2022-08-01T00:01:48;19.10;68.70
64468;DHT22;50853;46.836;16.820;2022-08-01T00:04:13;19.00;68.00
64468;DHT22;50853;46.836;16.820;2022-08-01T00:06:39;19.00;67.60
64468;DHT22;50853;46.836;16.820;2022-08-01T00:09:05;19.00;66.90
64468;DHT22;50853;46.836;16.820;2022-08-01T00:11:31;19.00;68.70
64468;DHT22;50853;46.836;16.820;2022-08-01T00:13:57;19.00;68.00
64468;DHT22;50853;46.836;16.820;2022-08-01T00:16:23;18.90;67.70
64468;DHT22;50853;46.836;16.820;2022-08-01T00:18:50;18.90;68.80
64468;DHT22;50853;46.836;16.820;2022-08-01T00:21:16;18.90;69.50
64468;DHT22;50853;46.836;16.820;2022-08-01T00:23:42;18.90;69.60
64468;DHT22;50853;46.836;16.820;2022-08-01T00:26:09;18.80;69.80
64468;DHT22;50853;46.836;16.820;2022-08-01T00:28:34;18.80;69.60
64468;DHT22;50853;46.836;16.820;2022-08-01T00:31:00;18.70;69.50
64468;DHT22;50853;46.836;16.820;2022-08-01T00:33:26;18.70;68.50
64468;DHT22;50853;46.836;16.820;2022-08-01T00:35:52;18.70;67.40
64468;DHT22;50853;46.836;16.820;2022-08-01T00:38:18;18.70;65.90
64468;DHT22;50853;46.836;16.820;2022-08-01T00:40:44;18.70;67.20
64468;DHT22;50853;46.836;16.820;2022-08-01T00:43:10;18.60;69.80
64468;DHT22;50853;46.836;16.820;2022-08-01T00:45:36;18.60;69.50
64468;DHT22;50853;46.836;16.820;2022-08-01T00:48:02;18.60;68.60
64468;DHT22;50853;46.836;16.820;2022-08-01T00:50:28;18.60;70.10
64468;DHT22;50853;46.836;16.820;2022-08-01T00:52:55;18.60;67.90
64468;DHT22;50853;46.836;16.820;2022-08-01T00:55:21;18.50;66.30
64468;DHT22;50853;46.836;16.820;2022-08-01T00:57:48;18.50;68.30
64468;DHT22;50853;46.836;16.820;2022-08-01T01:00:15;18.40;68.40
64468;DHT22;50853;46.836;16.820;2022-08-01T01:02:40;18.40;69.00
64468;DHT22;50853;46.836;16.820;2022-08-01T01:05:07;18.40;70.00
64468;DHT22;50853;46.836;16.820;2022-08-01T01:07:56;18.30;68.80
64468;DHT22;50853;46.836;16.820;2022-08-01T01:10:32;18.30;68.70
64468;DHT22;50853;46.836;16.820;2022-08-01T01:13:16;18.30;67.70
64468;DHT22;50853;46.836;16.820;2022-08-01T01:15:51;18.30;66.40
64468;DHT22;50853;46.836;16.820;2022-08-01T01:18:46;18.30;67.20
64468;DHT22;50853;46.836;16.820;2022-08-01T01:32:14;18.30;66.20
64468;DHT22;50853;46.836;16.820;2022-08-01T01:34:44;18.20;67.00
64468;DHT22;50853;46.836;16.820;2022-08-01T01:37:17;18.10;68.80
64468;DHT22;50853;46.836;16.820;2022-08-01T01:39:44;18.10;68.80
64468;DHT22;50853;46.836;16.820;2022-08-01T01:42:13;18.10;65.80
64468;DHT22;50853;46.836;16.820;2022-08-01T01:44:40;18.20;65.80
64468;DHT22;50853;46.836;16.820;2022-08-01T01:47:07;18.10;66.70
64468;DHT22;50853;46.836;16.820;2022-08-01T01:49:33;18.10;66.00
64468;DHT22;50853;46.836;16.820;2022-08-01T01:52:00;18.10;65.70
64468;DHT22;50853;46.836;16.820;2022-08-01T01:54:33;18.10;65.10
64468;DHT22;50853;46.836;16.820;2022-08-01T01:57:02;18.10;64.80
64468;DHT22;50853;46.836;16.820;2022-08-01T01:59:33;18.10;64.60
64468;DHT22;50853;46.836;16.820;2022-08-01T02:02:03;18.00;65.30
64468;DHT22;50853;46.836;16.820;2022-08-01T02:04:30;18.00;65.40
64468;DHT22;50853;46.836;16.820;2022-08-01T02:06:59;18.00;66.70
64468;DHT22;50853;46.836;16.820;2022-08-01T02:09:27;18.00;65.30
64468;DHT22;50853;46.836;16.820;2022-08-01T02:11:54;17.90;68.20
64468;DHT22;50853;46.836;16.820;2022-08-01T02:14:22;17.90;68.30
64468;DHT22;50853;46.836;16.820;2022-08-01T02:16:50;17.80;69.50
64468;DHT22;50853;46.836;16.820;2022-08-01T02:19:19;17.80;71.80
64468;DHT22;50853;46.836;16.820;2022-08-01T02:24:19;17.70;69.70
64468;DHT22;50853;46.836;16.820;2022-08-01T02:26:51;17.70;68.30
64468;DHT22;50853;46.836;16.820;2022-08-01T02:32:46;17.70;68.30
64468;DHT22;50853;46.836;16.820;2022-08-01T02:35:34;17.60;68.80
64468;DHT22;50853;46.836;16.820;2022-08-01T02:38:03;17.60;69.40
64468;DHT22;50853;46.836;16.820;2022-08-01T02:40:32;17.60;71.20
64468;DHT22;50853;46.836;16.820;2022-08-01T02:43:00;17.60;70.10
64468;DHT22;50853;46.836;16.820;2022-08-01T02:45:27;17.50;70.10
64468;DHT22;50853;46.836;16.820;2022-08-01T02:47:59;17.60;69.30
64468;DHT22;50853;46.836;16.820;2022-08-01T02:50:28;17.60;67.80
64468;DHT22;50853;46.836;16.820;2022-08-01T02:52:55;17.60;67.40
64468;DHT22;50853;46.836;16.820;2022-08-01T02:55:22;17.50;68.30
64468;DHT22;50853;46.836;16.820;2022-08-01T02:57:49;17.50;69.40
64468;DHT22;50853;46.836;16.820;2022-08-01T03:00:17;17.50;68.80
64468;DHT22;50853;46.836;16.820;2022-08-01T03:02:44;17.50;68.60
64468;DHT22;50853;46.836;16.820;2022-08-01T03:05:13;17.40;69.80
64468;DHT22;50853;46.836;16.820;2022-08-01T03:07:39;17.40;69.30
64468;DHT22;50853;46.836;16.820;2022-08-01T03:10:08;17.30;70.00
64468;DHT22;50853;46.836;16.820;2022-08-01T03:12:34;17.30;70.70
64468;DHT22;50853;46.836;16.820;2022-08-01T03:15:03;17.30;70.60
64468;DHT22;50853;46.836;16.820;2022-08-01T03:17:30;17.30;70.40
64468;DHT22;50853;46.836;16.820;2022-08-01T03:19:58;17.30;70.60
64468;DHT22;50853;46.836;16.820;2022-08-01T03:22:27;17.20;70.40
64468;DHT22;50853;46.836;16.820;2022-08-01T03:24:56;17.20;70.20
64468;DHT22;50853;46.836;16.820;2022-08-01T03:27:23;17.20;70.40
64468;DHT22;50853;46.836;16.820;2022-08-01T03:29:51;17.20;70.70
64468;DHT22;50853;46.836;16.820;2022-08-01T03:32:21;17.20;70.00
64468;DHT22;50853;46.836;16.820;2022-08-01T03:34:47;17.20;68.80
64468;DHT22;50853;46.836;16.820;2022-08-01T03:37:43;17.20;70.90
64468;DHT22;50853;46.836;16.820;2022-08-01T03:40:17;17.20;70.60
64468;DHT22;50853;46.836;16.820;2022-08-01T03:42:52;17.20;69.80
64468;DHT22;50853;46.836;16.820;2022-08-01T03:45:23;17.20;71.70
64468;DHT22;50853;46.836;16.820;2022-08-01T03:47:56;17.20;71.80
64468;DHT22;50853;46.836;16.820;2022-08-01T03:50:24;17.30;71.00
64468;DHT22;50853;46.836;16.820;2022-08-01T03:52:51;17.30;74.00
64468;DHT22;50853;46.836;16.820;2022-08-01T03:55:20;17.60;73.80
64468;DHT22;50853;46.836;16.820;2022-08-01T03:57:48;17.80;72.70
64468;DHT22;50853;46.836;16.820;2022-08-01T04:00:14;17.80;71.00
64468;DHT22;50853;46.836;16.820;2022-08-01T04:02:47;17.90;71.40
64468;DHT22;50853;46.836;16.820;2022-08-01T04:05:16;18.00;70.40
64468;DHT22;50853;46.836;16.820;2022-08-01T04:07:47;18.10;72.80
64468;DHT22;50853;46.836;16.820;2022-08-01T04:10:13;18.30;73.70
64468;DHT22;50853;46.836;16.820;2022-08-01T04:12:39;18.50;72.50
64468;DHT22;50853;46.836;16.820;2022-08-01T04:15:07;18.60;74.30
64468;DHT22;50853;46.836;16.820;2022-08-01T04:17:33;18.50;71.20
64468;DHT22;50853;46.836;16.820;2022-08-01T04:19:59;18.50;72.00
64468;DHT22;50853;46.836;16.820;2022-08-01T04:22:25;18.50;71.30
64468;DHT22;50853;46.836;16.820;2022-08-01T04:24:53;18.40;73.10
64468;DHT22;50853;46.836;16.820;2022-08-01T04:27:24;18.40;72.80
64468;DHT22;50853;46.836;16.820;2022-08-01T04:29:53;18.60;73.50
64468;DHT22;50853;46.836;16.820;2022-08-01T04:32:21;18.80;71.50
64468;DHT22;50853;46.836;16.820;2022-08-01T04:34:48;19.00;72.60
64468;DHT22;50853;46.836;16.820;2022-08-01T04:37:15;18.90;71.20
64468;DHT22;50853;46.836;16.820;2022-08-01T04:39:42;18.90;71.50
64468;DHT22;50853;46.836;16.820;2022-08-01T04:42:09;18.80;71.20
64468;DHT22;50853;46.836;16.820;2022-08-01T04:56:43;18.80;72.60
64468;DHT22;50853;46.836;16.820;2022-08-01T04:59:09;18.80;73.00
64468;DHT22;50853;46.836;16.820;2022-08-01T05:01:53;18.90;74.10
64468;DHT22;50853;46.836;16.820;2022-08-01T05:04:19;18.80;71.70
64468;DHT22;50853;46.836;16.820;2022-08-01T05:06:45;18.80;72.50
64468;DHT22;50853;46.836;16.820;2022-08-01T05:09:10;18.90;75.30
64468;DHT22;50853;46.836;16.820;2022-08-01T05:11:36;18.90;73.30
64468;DHT22;50853;46.836;16.820;2022-08-01T05:14:02;18.90;74.00
64468;DHT22;50853;46.836;16.820;2022-08-01T05:16:28;18.90;73.00
64468;DHT22;50853;46.836;16.820;2022-08-01T05:18:54;19.00;73.30
64468;DHT22;50853;46.836;16.820;2022-08-01T05:21:20;19.00;73.00
64468;DHT22;50853;46.836;16.820;2022-08-01T05:23:46;19.00;72.60
64468;DHT22;50853;46.836;16.820;2022-08-01T05:26:11;19.00;73.10
64468;DHT22;50853;46.836;16.820;2022-08-01T05:28:39;19.00;71.60
64468;DHT22;50853;46.836;16.820;2022-08-01T05:31:05;19.10;71.20
64468;DHT22;50853;46.836;16.820;2022-08-01T05:33:31;19.20;72.40
64468;DHT22;50853;46.836;16.820;2022-08-01T05:35:56;19.30;73.30
64468;DHT22;50853;46.836;16.820;2022-08-01T05:38:22;19.30;73.40
64468;DHT22;50853;46.836;16.820;2022-08-01T05:40:48;19.40;72.80
64468;DHT22;50853;46.836;16.820;2022-08-01T05:43:14;19.30;73.00
64468;DHT22;50853;46.836;16.820;2022-08-01T05:45:39;19.40;73.70
64468;DHT22;50853;46.836;16.820;2022-08-01T05:48:06;19.40;73.70
64468;DHT22;50853;46.836;16.820;2022-08-01T05:50:33;19.40;73.20
64468;DHT22;50853;46.836;16.820;2022-08-01T05:52:59;19.50;73.70
64468;DHT22;50853;46.836;16.820;2022-08-01T05:55:25;19.60;73.50
64468;DHT22;50853;46.836;16.820;2022-08-01T05:57:50;19.60;72.80
64468;DHT22;50853;46.836;16.820;2022-08-01T06:00:16;19.60;74.50
64468;DHT22;50853;46.836;16.820;2022-08-01T06:02:42;19.60;73.80
64468;DHT22;50853;46.836;16.820;2022-08-01T06:05:09;19.70;73.50
64468;DHT22;50853;46.836;16.820;2022-08-01T06:07:35;19.70;74.20
64468;DHT22;50853;46.836;16.820;2022-08-01T06:10:02;19.70;73.90
64468;DHT22;50853;46.836;16.820;2022-08-01T06:12:28;19.70;72.80
64468;DHT22;50853;46.836;16.820;2022-08-01T06:14:54;19.80;73.40
64468;DHT22;50853;46.836;16.820;2022-08-01T06:17:19;19.90;74.40
64468;DHT22;50853;46.836;16.820;2022-08-01T06:19:45;19.90;74.40
64468;DHT22;50853;46.836;16.820;2022-08-01T06:22:11;20.00;74.30
64468;DHT22;50853;46.836;16.820;2022-08-01T06:24:37;20.00;73.50
64468;DHT22;50853;46.836;16.820;2022-08-01T06:27:03;20.00;73.30
64468;DHT22;50853;46.836;16.820;2022-08-01T06:29:30;20.10;72.40
64468;DHT22;50853;46.836;16.820;2022-08-01T06:31:58;20.10;72.60
64468;DHT22;50853;46.836;16.820;2022-08-01T06:34:24;20.10;72.10
64468;DHT22;50853;46.836;16.820;2022-08-01T06:36:49;20.20;73.30
64468;DHT22;50853;46.836;16.820;2022-08-01T06:39:15;20.20;72.40
64468;DHT22;50853;46.836;16.820;2022-08-01T06:41:41;20.30;73.70
64468;DHT22;50853;46.836;16.820;2022-08-01T06:44:07;20.30;73.40
64468;DHT22;50853;46.836;16.820;2022-08-01T06:46:34;20.30;73.00
64468;DHT22;50853;46.836;16.820;2022-08-01T06:49:00;20.40;73.20
64468;DHT22;50853;46.836;16.820;2022-08-01T06:51:26;20.50;72.50
64468;DHT22;50853;46.836;16.820;2022-08-01T06:53:52;20.60;74.30
64468;DHT22;50853;46.836;16.820;2022-08-01T06:56:19;20.70;73.50
64468;DHT22;50853;46.836;16.820;2022-08-01T06:58:44;20.90;73.00
64468;DHT22;50853;46.836;16.820;2022-08-01T07:01:10;21.10;71.60
64468;DHT22;50853;46.836;16.820;2022-08-01T07:03:36;21.50;73.10
64468;DHT22;50853;46.836;16.820;2022-08-01T07:06:03;21.80;72.10
64468;DHT22;50853;46.836;16.820;2022-08-01T07:08:29;22.20;70.10
64468;DHT22;50853;46.836;16.820;2022-08-01T07:10:55;22.40;70.30
64468;DHT22;50853;46.836;16.820;2022-08-01T07:13:28;22.50;69.70
64468;DHT22;50853;46.836;16.820;2022-08-01T07:15:56;22.60;70.40
64468;DHT22;50853;46.836;16.820;2022-08-01T07:18:23;22.70;69.80
64468;DHT22;50853;46.836;16.820;2022-08-01T07:20:49;22.80;70.40
64468;DHT22;50853;46.836;16.820;2022-08-01T07:23:16;23.00;69.60
64468;DHT22;50853;46.836;16.820;2022-08-01T07:25:42;23.00;68.10
64468;DHT22;50853;46.836;16.820;2022-08-01T07:28:08;23.10;69.50
64468;DHT22;50853;46.836;16.820;2022-08-01T07:30:34;23.30;69.70
64468;DHT22;50853;46.836;16.820;2022-08-01T07:33:00;23.40;70.30
64468;DHT22;50853;46.836;16.820;2022-08-01T07:35:26;23.50;70.10
64468;DHT22;50853;46.836;16.820;2022-08-01T07:37:52;23.60;66.20
64468;DHT22;50853;46.836;16.820;2022-08-01T07:40:19;23.60;67.90
64468;DHT22;50853;46.836;16.820;2022-08-01T07:42:45;23.70;69.70
64468;DHT22;50853;46.836;16.820;2022-08-01T07:45:12;23.70;65.40
64468;DHT22;50853;46.836;16.820;2022-08-01T07:47:38;24.00;69.10
64468;DHT22;50853;46.836;16.820;2022-08-01T07:50:05;24.20;67.80
64468;DHT22;50853;46.836;16.820;2022-08-01T07:52:32;24.40;67.00
64468;DHT22;50853;46.836;16.820;2022-08-01T07:54:58;24.60;64.60
64468;DHT22;50853;46.836;16.820;2022-08-01T07:57:24;24.90;65.10
64468;DHT22;50853;46.836;16.820;2022-08-01T07:59:51;25.30;66.40
64468;DHT22;50853;46.836;16.820;2022-08-01T08:02:16;25.40;65.50
64468;DHT22;50853;46.836;16.820;2022-08-01T08:04:42;25.50;65.30
64468;DHT22;50853;46.836;16.820;2022-08-01T08:07:08;25.50;65.80
64468;DHT22;50853;46.836;16.820;2022-08-01T08:09:34;25.50;64.80
64468;DHT22;50853;46.836;16.820;2022-08-01T08:12:00;25.50;65.30
64468;DHT22;50853;46.836;16.820;2022-08-01T08:14:26;25.50;65.50
64468;DHT22;50853;46.836;16.820;2022-08-01T08:16:52;25.60;66.10
64468;DHT22;50853;46.836;16.820;2022-08-01T08:19:18;25.60;65.60
64468;DHT22;50853;46.836;16.820;2022-08-01T08:21:44;25.50;65.60
64468;DHT22;50853;46.836;16.820;2022-08-01T08:24:11;25.40;63.80
64468;DHT22;50853;46.836;16.820;2022-08-01T08:26:54;25.30;65.30
64468;DHT22;50853;46.836;16.820;2022-08-01T08:29:23;25.30;66.40
64468;DHT22;50853;46.836;16.820;2022-08-01T08:31:49;25.20;66.60
64468;DHT22;50853;46.836;16.820;2022-08-01T08:34:16;25.30;67.50
64468;DHT22;50853;46.836;16.820;2022-08-01T08:36:42;25.20;67.30
64468;DHT22;50853;46.836;16.820;2022-08-01T08:39:08;25.10;66.60
64468;DHT22;50853;46.836;16.820;2022-08-01T08:41:35;25.10;66.90
64468;DHT22;50853;46.836;16.820;2022-08-01T08:44:02;25.00;65.90
64468;DHT22;50853;46.836;16.820;2022-08-01T08:46:29;25.00;66.60
64468;DHT22;50853;46.836;16.820;2022-08-01T08:48:59;25.00;67.50
64468;DHT22;50853;46.836;16.820;2022-08-01T08:51:26;25.10;66.70
64468;DHT22;50853;46.836;16.820;2022-08-01T08:53:57;25.10;67.20
64468;DHT22;50853;46.836;16.820;2022-08-01T08:56:26;25.30;67.90
64468;DHT22;50853;46.836;16.820;2022-08-01T08:58:55;25.30;67.70
64468;DHT22;50853;46.836;16.820;2022-08-01T09:01:22;25.40;67.30
64468;DHT22;50853;46.836;16.820;2022-08-01T09:03:48;25.40;67.70
64468;DHT22;50853;46.836;16.820;2022-08-01T09:06:14;25.30;65.50
64468;DHT22;50853;46.836;16.820;2022-08-01T09:08:40;25.30;65.00
64468;DHT22;50853;46.836;16.820;2022-08-01T09:11:06;25.20;64.90
64468;DHT22;50853;46.836;16.820;2022-08-01T09:13:31;25.10;65.30
64468;DHT22;50853;46.836;16.820;2022-08-01T09:15:57;25.20;65.40
64468;DHT22;50853;46.836;16.820;2022-08-01T09:18:40;25.20;65.10
64468;DHT22;50853;46.836;16.820;2022-08-01T09:21:17;25.10;64.00
64468;DHT22;50853;46.836;16.820;2022-08-01T09:23:48;25.20;63.70
64468;DHT22;50853;46.836;16.820;2022-08-01T09:26:35;25.20;64.80
64468;DHT22;50853;46.836;16.820;2022-08-01T09:29:06;25.30;66.30
64468;DHT22;50853;46.836;16.820;2022-08-01T09:31:43;25.40;65.40
64468;DHT22;50853;46.836;16.820;2022-08-01T09:34:10;25.50;64.70
64468;DHT22;50853;46.836;16.820;2022-08-01T09:39:19;25.50;64.60
64468;DHT22;50853;46.836;16.820;2022-08-01T09:41:45;25.60;65.40
64468;DHT22;50853;46.836;16.820;2022-08-01T09:44:12;25.50;64.30
64468;DHT22;50853;46.836;16.820;2022-08-01T09:46:56;25.60;64.80
64468;DHT22;50853;46.836;16.820;2022-08-01T09:49:32;25.70;65.00
64468;DHT22;50853;46.836;16.820;2022-08-01T09:52:13;25.60;64.50
64468;DHT22;50853;46.836;16.820;2022-08-01T09:54:40;25.70;65.30
64468;DHT22;50853;46.836;16.820;2022-08-01T09:57:15;25.80;64.70
64468;DHT22;50853;46.836;16.820;2022-08-01T09:59:44;26.20;66.00
64468;DHT22;50853;46.836;16.820;2022-08-01T10:02:26;26.90;64.70
64468;DHT22;50853;46.836;16.820;2022-08-01T10:04:52;27.40;65.00
64468;DHT22;50853;46.836;16.820;2022-08-01T10:07:18;27.90;63.80
64468;DHT22;50853;46.836;16.820;2022-08-01T10:09:45;28.30;62.60
64468;DHT22;50853;46.836;16.820;2022-08-01T10:12:19;28.60;62.80
64468;DHT22;50853;46.836;16.820;2022-08-01T10:14:48;28.90;61.80
64468;DHT22;50853;46.836;16.820;2022-08-01T10:17:24;29.20;60.60
64468;DHT22;50853;46.836;16.820;2022-08-01T10:19:51;29.60;59.30
64468;DHT22;50853;46.836;16.820;2022-08-01T10:22:23;29.70;57.80
64468;DHT22;50853;46.836;16.820;2022-08-01T10:24:52;29.70;55.00
64468;DHT22;50853;46.836;16.820;2022-08-01T10:27:20;30.00;58.40
64468;DHT22;50853;46.836;16.820;2022-08-01T10:29:51;30.40;52.40
64468;DHT22;50853;46.836;16.820;2022-08-01T10:32:21;30.70;54.30
64468;DHT22;50853;46.836;16.820;2022-08-01T10:34:48;30.90;51.10
64468;DHT22;50853;46.836;16.820;2022-08-01T10:37:15;31.00;52.30
64468;DHT22;50853;46.836;16.820;2022-08-01T10:39:43;31.10;47.80
64468;DHT22;50853;46.836;16.820;2022-08-01T10:42:12;31.40;48.80
64468;DHT22;50853;46.836;16.820;2022-08-01T10:44:39;31.70;49.80
64468;DHT22;50853;46.836;16.820;2022-08-01T10:47:14;31.90;48.10
64468;DHT22;50853;46.836;16.820;2022-08-01T10:49:49;31.90;49.20
64468;DHT22;50853;46.836;16.820;2022-08-01T10:52:17;32.10;47.70
64468;DHT22;50853;46.836;16.820;2022-08-01T10:54:44;32.30;45.90
64468;DHT22;50853;46.836;16.820;2022-08-01T10:57:10;32.40;45.70
64468;DHT22;50853;46.836;16.820;2022-08-01T10:59:51;32.40;46.20
64468;DHT22;50853;46.836;16.820;2022-08-01T11:02:29;32.60;47.90
64468;DHT22;50853;46.836;16.820;2022-08-01T11:05:02;32.70;44.60
64468;DHT22;50853;46.836;16.820;2022-08-01T11:07:53;32.90;42.90
64468;DHT22;50853;46.836;16.820;2022-08-01T11:10:30;33.00;44.70
64468;DHT22;50853;46.836;16.820;2022-08-01T11:12:58;33.20;45.50
64468;DHT22;50853;46.836;16.820;2022-08-01T11:15:26;33.40;45.30
64468;DHT22;50853;46.836;16.820;2022-08-01T11:17:57;33.60;45.50
64468;DHT22;50853;46.836;16.820;2022-08-01T11:20:29;33.80;44.70
64468;DHT22;50853;46.836;16.820;2022-08-01T11:33:09;33.60;40.80
64468;DHT22;50853;46.836;16.820;2022-08-01T11:35:36;33.70;39.60
64468;DHT22;50853;46.836;16.820;2022-08-01T11:38:31;33.80;38.90
64468;DHT22;50853;46.836;16.820;2022-08-01T11:41:25;34.00;38.40
64468;DHT22;50853;46.836;16.820;2022-08-01T11:46:49;34.30;42.30
64468;DHT22;50853;46.836;16.820;2022-08-01T11:49:42;34.50;42.30
64468;DHT22;50853;46.836;16.820;2022-08-01T11:52:31;34.40;38.40
64468;DHT22;50853;46.836;16.820;2022-08-01T11:57:30;34.10;38.90
64468;DHT22;50853;46.836;16.820;2022-08-01T11:59:58;33.90;37.70
64468;DHT22;50853;46.836;16.820;2022-08-01T12:02:35;34.00;38.90
64468;DHT22;50853;46.836;16.820;2022-08-01T12:05:05;34.00;41.10
64468;DHT22;50853;46.836;16.820;2022-08-01T12:07:32;33.90;35.80
64468;DHT22;50853;46.836;16.820;2022-08-01T12:10:11;33.30;34.30
64468;DHT22;50853;46.836;16.820;2022-08-01T12:12:43;33.30;37.70
64468;DHT22;50853;46.836;16.820;2022-08-01T12:15:09;33.90;38.20
64468;DHT22;50853;46.836;16.820;2022-08-01T12:17:38;34.00;38.10
64468;DHT22;50853;46.836;16.820;2022-08-01T12:20:06;34.30;41.50
64468;DHT22;50853;46.836;16.820;2022-08-01T12:22:33;34.60;39.00
64468;DHT22;50853;46.836;16.820;2022-08-01T12:27:33;34.50;38.90
64468;DHT22;50853;46.836;16.820;2022-08-01T12:29:59;34.40;39.10
64468;DHT22;50853;46.836;16.820;2022-08-01T12:32:30;34.30;38.80
64468;DHT22;50853;46.836;16.820;2022-08-01T12:35:20;34.50;39.30
64468;DHT22;50853;46.836;16.820;2022-08-01T12:38:05;34.70;38.70
64468;DHT22;50853;46.836;16.820;2022-08-01T12:40:33;34.50;36.70
64468;DHT22;50853;46.836;16.820;2022-08-01T12:43:04;34.20;35.50
64468;DHT22;50853;46.836;16.820;2022-08-01T12:45:38;34.60;39.20
64468;DHT22;50853;46.836;16.820;2022-08-01T12:48:12;35.00;37.40
64468;DHT22;50853;46.836;16.820;2022-08-01T12:50:42;35.10;37.50
64468;DHT22;50853;46.836;16.820;2022-08-01T12:53:09;34.80;35.10
64468;DHT22;50853;46.836;16.820;2022-08-01T12:55:51;34.50;35.00
64468;DHT22;50853;46.836;16.820;2022-08-01T12:58:19;34.10;34.90
64468;DHT22;50853;46.836;16.820;2022-08-01T13:00:47;34.30;37.50
64468;DHT22;50853;46.836;16.820;2022-08-01T13:03:15;34.40;35.60
64468;DHT22;50853;46.836;16.820;2022-08-01T13:05:48;34.30;35.30
64468;DHT22;50853;46.836;16.820;2022-08-01T13:08:20;34.30;36.80
64468;DHT22;50853;46.836;16.820;2022-08-01T13:10:46;34.50;36.30
64468;DHT22;50853;46.836;16.820;2022-08-01T13:13:14;34.50;35.70
64468;DHT22;50853;46.836;16.820;2022-08-01T13:15:42;34.70;36.80
64468;DHT22;50853;46.836;16.820;2022-08-01T13:18:28;34.60;38.00
64468;DHT22;50853;46.836;16.820;2022-08-01T13:21:14;34.60;39.10
64468;DHT22;50853;46.836;16.820;2022-08-01T13:29:17;35.20;38.00
64468;DHT22;50853;46.836;16.820;2022-08-01T13:31:43;34.60;35.00
64468;DHT22;50853;46.836;16.820;2022-08-01T13:34:10;34.50;35.60
64468;DHT22;50853;46.836;16.820;2022-08-01T13:36:37;34.60;38.00
64468;DHT22;50853;46.836;16.820;2022-08-01T13:39:04;34.70;37.40
64468;DHT22;50853;46.836;16.820;2022-08-01T13:41:49;34.90;37.50
64468;DHT22;50853;46.836;16.820;2022-08-01T13:44:15;34.90;37.20
64468;DHT22;50853;46.836;16.820;2022-08-01T13:46:42;34.60;35.00
64468;DHT22;50853;46.836;16.820;2022-08-01T13:49:09;34.70;37.50
64468;DHT22;50853;46.836;16.820;2022-08-01T13:51:36;34.50;36.70
64468;DHT22;50853;46.836;16.820;2022-08-01T13:54:02;34.50;36.20
64468;DHT22;50853;46.836;16.820;2022-08-01T13:56:29;34.50;36.40
64468;DHT22;50853;46.836;16.820;2022-08-01T13:58:55;34.50;36.70
64468;DHT22;50853;46.836;16.820;2022-08-01T14:01:21;34.40;36.30
64468;DHT22;50853;46.836;16.820;2022-08-01T14:03:47;34.20;37.10
64468;DHT22;50853;46.836;16.820;2022-08-01T14:06:14;34.00;36.30
64468;DHT22;50853;46.836;16.820;2022-08-01T14:08:42;33.70;36.00
64468;DHT22;50853;46.836;16.820;2022-08-01T14:11:09;33.40;36.70
64468;DHT22;50853;46.836;16.820;2022-08-01T14:13:35;33.40;37.40
64468;DHT22;50853;46.836;16.820;2022-08-01T14:16:05;33.60;38.00
64468;DHT22;50853;46.836;16.820;2022-08-01T14:18:31;33.60;39.00
64468;DHT22;50853;46.836;16.820;2022-08-01T14:20:57;33.40;37.30
64468;DHT22;50853;46.836;16.820;2022-08-01T14:23:22;33.10;37.20
64468;DHT22;50853;46.836;16.820;2022-08-01T14:25:48;32.70;37.00
64468;DHT22;50853;46.836;16.820;2022-08-01T14:28:14;32.50;36.30
64468;DHT22;50853;46.836;16.820;2022-08-01T14:30:40;32.60;38.20
64468;DHT22;50853;46.836;16.820;2022-08-01T14:33:10;32.50;39.40
64468;DHT22;50853;46.836;16.820;2022-08-01T14:35:36;32.60;40.60
64468;DHT22;50853;46.836;16.820;2022-08-01T14:38:02;32.50;39.90
64468;DHT22;50853;46.836;16.820;2022-08-01T14:40:29;32.20;38.10
64468;DHT22;50853;46.836;16.820;2022-08-01T14:42:55;32.20;40.70
64468;DHT22;50853;46.836;16.820;2022-08-01T14:45:20;32.10;40.30
64468;DHT22;50853;46.836;16.820;2022-08-01T14:47:46;31.70;39.10
64468;DHT22;50853;46.836;16.820;2022-08-01T14:50:14;31.80;40.60
64468;DHT22;50853;46.836;16.820;2022-08-01T14:52:42;31.70;40.90
64468;DHT22;50853;46.836;16.820;2022-08-01T14:55:09;31.60;40.10
